sensor_id;sensor_type;location;lat;lon;timestamp;P1;durP1;ratioP1;P2;durP2;ratioP2
19223;SDS011;9746;47.180;9.776;2022-12-08T10:47:19;0.20;;;0.20;;
19223;SDS011;9746;47.180;9.776;2022-12-08T10:49:52;0.20;;;0.20;;
19223;SDS011;9746;47.180;9.776;2022-12-08T10:52:37;0.30;;;0.30;;
19223;SDS011;9746;47.180;9.776;2022-12-08T10:55:12;0.20;;;0.20;;
19223;SDS011;9746;47.180;9.776;2022-12-08T10:57:42;0.20;;;0.20;;
19223;SDS011;9746;47.180;9.776;2022-12-08T11:00:13;0.30;;;0.30;;
19223;SDS011;9746;47.180;9.776;2022-12-08T11:02:51;0.20;;;0.20;;
19223;SDS011;9746;47.180;9.776;2022-12-08T11:05:20;0.30;;;0.30;;
19223;SDS011;9746;47.180;9.776;2022-12-08T11:07:51;0.20;;;0.20;;
19223;SDS011;9746;47.180;9.776;2022-12-08T11:10:24;0.20;;;0.20;;
19223;SDS011;9746;47.180;9.776;2022-12-08T11:12:59;0.23;;;0.23;;
19223;SDS011;9746;47.180;9.776;2022-12-08T11:15:31;0.20;;;0.20;;
19223;SDS011;9746;47.180;9.776;2022-12-08T11:18:08;0.20;;;0.20;;
19223;SDS011;9746;47.180;9.776;2022-12-08T11:20:47;0.20;;;0.20;;
19223;SDS011;9746;47.180;9.776;2022-12-08T11:23:24;0.20;;;0.20;;
19223;SDS011;9746;47.180;9.776;2022-12-08T11:28:41;0.20;;;0.20;;
19223;SDS011;9746;47.180;9.776;2022-12-08T11:34:32;0.20;;;0.20;;
19223;SDS011;9746;47.180;9.776;2022-12-08T11:40:30;0.20;;;0.20;;
19223;SDS011;9746;47.180;9.776;2022-12-08T11:45:49;0.20;;;0.20;;
19223;SDS011;9746;47.180;9.776;2022-12-08T11:48:21;0.20;;;0.20;;
19223;SDS011;9746;47.180;9.776;2022-12-08T11:50:57;0.20;;;0.20;;
19223;SDS011;9746;47.180;9.776;2022-12-08T11:53:30;0.20;;;0.20;;
19223;SDS011;9746;47.180;9.776;2022-12-08T11:56:18;0.10;;;0.10;;
19223;SDS011;9746;47.180;9.776;2022-12-08T11:58:48;0.20;;;0.20;;
19223;SDS011;9746;47.180;9.776;2022-12-08T12:01:22;0.20;;;0.20;;
19223;SDS011;9746;47.180;9.776;2022-12-08T12:03:53;0.20;;;0.20;;
19223;SDS011;9746;47.180;9.776;2022-12-08T12:15:59;0.20;;;0.20;;
19223;SDS011;9746;47.180;9.776;2022-12-08T12:18:48;0.17;;;0.17;;
19223;SDS011;9746;47.180;9.776;2022-12-08T12:21:32;0.20;;;0.20;;
19223;SDS011;9746;47.180;9.776;2022-12-08T12:24:03;0.20;;;0.20;;
19223;SDS011;9746;47.180;9.776;2022-12-08T12:29:20;0.20;;;0.20;;
19223;SDS011;9746;47.180;9.776;2022-12-08T12:35:14;0.20;;;0.20;;
19223;SDS011;9746;47.180;9.776;2022-12-08T12:37:55;0.20;;;0.20;;
19223;SDS011;9746;47.180;9.776;2022-12-08T12:40:26;0.20;;;0.20;;
19223;SDS011;9746;47.180;9.776;2022-12-08T12:43:13;0.20;;;0.20;;
19223;SDS011;9746;47.180;9.776;2022-12-08T12:48:54;0.20;;;0.20;;
19223;SDS011;9746;47.180;9.776;2022-12-08T13:04:30;0.20;;;0.20;;
19223;SDS011;9746;47.180;9.776;2022-12-08T13:07:02;0.20;;;0.20;;
19223;SDS011;9746;47.180;9.776;2022-12-08T13:09:32;0.20;;;0.20;;
19223;SDS011;9746;47.180;9.776;2022-12-08T13:12:17;0.27;;;0.27;;
19223;SDS011;9746;47.180;9.776;2022-12-08T13:14:49;0.20;;;0.20;;
19223;SDS011;9746;47.180;9.776;2022-12-08T13:20:40;0.20;;;0.20;;
19223;SDS011;9746;47.180;9.776;2022-12-08T13:23:24;0.30;;;0.30;;
19223;SDS011;9746;47.180;9.776;2022-12-08T13:26:10;0.30;;;0.30;;
19223;SDS011;9746;47.180;9.776;2022-12-08T13:32:11;0.20;;;0.20;;
19223;SDS011;9746;47.180;9.776;2022-12-08T13:35:17;0.30;;;0.30;;
19223;SDS011;9746;47.180;9.776;2022-12-08T13:40:42;0.20;;;0.20;;
19223;SDS011;9746;47.180;9.776;2022-12-08T13:45:45;0.30;;;0.30;;
19223;SDS011;9746;47.180;9.776;2022-12-08T13:48:19;0.30;;;0.30;;
19223;SDS011;9746;47.180;9.776;2022-12-08T13:50:53;0.20;;;0.20;;
19223;SDS011;9746;47.180;9.776;2022-12-08T13:53:34;0.30;;;0.30;;
19223;SDS011;9746;47.180;9.776;2022-12-08T13:56:05;0.20;;;0.20;;
19223;SDS011;9746;47.180;9.776;2022-12-08T14:01:42;0.27;;;0.27;;
19223;SDS011;9746;47.180;9.776;2022-12-08T14:07:00;0.30;;;0.30;;
19223;SDS011;9746;47.180;9.776;2022-12-08T14:09:31;0.30;;;0.30;;
19223;SDS011;9746;47.180;9.776;2022-12-08T14:12:02;0.20;;;0.20;;
19223;SDS011;9746;47.180;9.776;2022-12-08T14:14:33;0.40;;;0.40;;
19223;SDS011;9746;47.180;9.776;2022-12-08T14:20:13;0.27;;;0.27;;
19223;SDS011;9746;47.180;9.776;2022-12-08T14:25:18;0.30;;;0.30;;
19223;SDS011;9746;47.180;9.776;2022-12-08T14:30:35;0.20;;;0.20;;
19223;SDS011;9746;47.180;9.776;2022-12-08T14:35:57;0.30;;;0.30;;
19223;SDS011;9746;47.180;9.776;2022-12-08T14:41:38;0.33;;;0.33;;
19223;SDS011;9746;47.180;9.776;2022-12-08T14:50:44;0.30;;;0.30;;
19223;SDS011;9746;47.180;9.776;2022-12-08T14:56:50;0.30;;;0.30;;
19223;SDS011;9746;47.180;9.776;2022-12-08T15:05:16;0.40;;;0.40;;
19223;SDS011;9746;47.180;9.776;2022-12-08T15:10:37;0.30;;;0.30;;
19223;SDS011;9746;47.180;9.776;2022-12-08T15:13:20;0.30;;;0.30;;
19223;SDS011;9746;47.180;9.776;2022-12-08T15:15:48;0.30;;;0.30;;
19223;SDS011;9746;47.180;9.776;2022-12-08T15:18:19;0.40;;;0.40;;
19223;SDS011;9746;47.180;9.776;2022-12-08T15:20:54;0.30;;;0.30;;
19223;SDS011;9746;47.180;9.776;2022-12-08T15:23:27;0.30;;;0.30;;
19223;SDS011;9746;47.180;9.776;2022-12-08T15:25:57;0.33;;;0.33;;
19223;SDS011;9746;47.180;9.776;2022-12-08T15:31:19;0.30;;;0.30;;
19223;SDS011;9746;47.180;9.776;2022-12-08T15:33:59;0.20;;;0.20;;
19223;SDS011;9746;47.180;9.776;2022-12-08T15:36:27;0.30;;;0.30;;
19223;SDS011;9746;47.180;9.776;2022-12-08T15:39:10;0.33;;;0.33;;
19223;SDS011;9746;47.180;9.776;2022-12-08T15:41:46;0.30;;;0.30;;
19223;SDS011;9746;47.180;9.776;2022-12-08T15:44:20;0.30;;;0.30;;
19223;SDS011;9746;47.180;9.776;2022-12-08T15:46:49;0.40;;;0.40;;
19223;SDS011;9746;47.180;9.776;2022-12-08T15:52:23;0.40;;;0.40;;
19223;SDS011;9746;47.180;9.776;2022-12-08T15:55:03;0.30;;;0.30;;
19223;SDS011;9746;47.180;9.776;2022-12-08T15:57:31;0.30;;;0.30;;
19223;SDS011;9746;47.180;9.776;2022-12-08T16:02:31;0.40;;;0.40;;
19223;SDS011;9746;47.180;9.776;2022-12-08T16:04:59;0.33;;;0.33;;
19223;SDS011;9746;47.180;9.776;2022-12-08T16:07:28;0.40;;;0.40;;
19223;SDS011;9746;47.180;9.776;2022-12-08T16:13:18;0.30;;;0.30;;
19223;SDS011;9746;47.180;9.776;2022-12-08T16:16:04;0.30;;;0.30;;
19223;SDS011;9746;47.180;9.776;2022-12-08T16:21:32;0.40;;;0.40;;
19223;SDS011;9746;47.180;9.776;2022-12-08T16:27:12;0.40;;;0.40;;
19223;SDS011;9746;47.180;9.776;2022-12-08T16:29:53;0.40;;;0.40;;
19223;SDS011;9746;47.180;9.776;2022-12-08T16:32:21;0.30;;;0.30;;
19223;SDS011;9746;47.180;9.776;2022-12-08T16:34:50;0.40;;;0.40;;
19223;SDS011;9746;47.180;9.776;2022-12-08T16:37:19;0.40;;;0.40;;
19223;SDS011;9746;47.180;9.776;2022-12-08T16:39:49;0.33;;;0.33;;
19223;SDS011;9746;47.180;9.776;2022-12-08T16:42:19;0.40;;;0.40;;
19223;SDS011;9746;47.180;9.776;2022-12-08T16:45:19;0.20;;;0.20;;
19223;SDS011;9746;47.180;9.776;2022-12-08T16:47:49;0.30;;;0.30;;
19223;SDS011;9746;47.180;9.776;2022-12-08T16:53:22;0.30;;;0.30;;
19223;SDS011;9746;47.180;9.776;2022-12-08T16:55:50;0.40;;;0.40;;
19223;SDS011;9746;47.180;9.776;2022-12-08T17:01:17;0.30;;;0.30;;
19223;SDS011;9746;47.180;9.776;2022-12-08T17:03:52;0.50;;;0.50;;
19223;SDS011;9746;47.180;9.776;2022-12-08T17:06:20;0.40;;;0.40;;
19223;SDS011;9746;47.180;9.776;2022-12-08T17:08:49;0.40;;;0.40;;
19223;SDS011;9746;47.180;9.776;2022-12-08T17:11:20;0.50;;;0.50;;
19223;SDS011;9746;47.180;9.776;2022-12-08T17:17:12;0.50;;;0.50;;
19223;SDS011;9746;47.180;9.776;2022-12-08T17:22:10;0.40;;;0.40;;
19223;SDS011;9746;47.180;9.776;2022-12-08T17:27:26;0.33;;;0.33;;
19223;SDS011;9746;47.180;9.776;2022-12-08T17:30:07;0.40;;;0.40;;
19223;SDS011;9746;47.180;9.776;2022-12-08T17:32:42;0.30;;;0.30;;
19223;SDS011;9746;47.180;9.776;2022-12-08T17:35:13;0.40;;;0.40;;
19223;SDS011;9746;47.180;9.776;2022-12-08T17:37:43;0.40;;;0.40;;
19223;SDS011;9746;47.180;9.776;2022-12-08T17:40:12;0.40;;;0.40;;
19223;SDS011;9746;47.180;9.776;2022-12-08T17:42:40;0.43;;;0.43;;
19223;SDS011;9746;47.180;9.776;2022-12-08T17:45:10;0.40;;;0.40;;
19223;SDS011;9746;47.180;9.776;2022-12-08T17:47:37;0.40;;;0.40;;
19223;SDS011;9746;47.180;9.776;2022-12-08T17:50:05;0.47;;;0.47;;
19223;SDS011;9746;47.180;9.776;2022-12-08T17:52:34;0.47;;;0.47;;
19223;SDS011;9746;47.180;9.776;2022-12-08T17:57:37;0.37;;;0.37;;
19223;SDS011;9746;47.180;9.776;2022-12-08T18:00:13;0.30;;;0.30;;
19223;SDS011;9746;47.180;9.776;2022-12-08T18:02:45;0.20;;;0.20;;
19223;SDS011;9746;47.180;9.776;2022-12-08T18:05:20;0.40;;;0.40;;
19223;SDS011;9746;47.180;9.776;2022-12-08T18:07:54;0.40;;;0.40;;
19223;SDS011;9746;47.180;9.776;2022-12-08T18:10:40;0.40;;;0.40;;
19223;SDS011;9746;47.180;9.776;2022-12-08T18:13:09;0.30;;;0.30;;
19223;SDS011;9746;47.180;9.776;2022-12-08T18:18:29;0.40;;;0.40;;
19223;SDS011;9746;47.180;9.776;2022-12-08T18:20:56;0.40;;;0.40;;
19223;SDS011;9746;47.180;9.776;2022-12-08T18:23:24;0.30;;;0.30;;
19223;SDS011;9746;47.180;9.776;2022-12-08T18:31:31;0.30;;;0.30;;
19223;SDS011;9746;47.180;9.776;2022-12-08T18:33:59;0.40;;;0.40;;
19223;SDS011;9746;47.180;9.776;2022-12-08T18:36:34;0.40;;;0.40;;
19223;SDS011;9746;47.180;9.776;2022-12-08T18:39:02;0.30;;;0.30;;
19223;SDS011;9746;47.180;9.776;2022-12-08T18:41:30;0.40;;;0.40;;
19223;SDS011;9746;47.180;9.776;2022-12-08T18:44:03;0.30;;;0.30;;
19223;SDS011;9746;47.180;9.776;2022-12-08T18:46:31;0.30;;;0.30;;
19223;SDS011;9746;47.180;9.776;2022-12-08T18:49:07;0.30;;;0.30;;
19223;SDS011;9746;47.180;9.776;2022-12-08T18:51:37;0.43;;;0.43;;
19223;SDS011;9746;47.180;9.776;2022-12-08T18:54:17;0.30;;;0.30;;
19223;SDS011;9746;47.180;9.776;2022-12-08T18:56:45;0.33;;;0.33;;
19223;SDS011;9746;47.180;9.776;2022-12-08T18:59:15;0.40;;;0.40;;
19223;SDS011;9746;47.180;9.776;2022-12-08T19:01:44;0.40;;;0.40;;
19223;SDS011;9746;47.180;9.776;2022-12-08T19:04:12;0.40;;;0.40;;
19223;SDS011;9746;47.180;9.776;2022-12-08T19:06:40;0.50;;;0.50;;
19223;SDS011;9746;47.180;9.776;2022-12-08T19:09:14;0.30;;;0.30;;
19223;SDS011;9746;47.180;9.776;2022-12-08T19:11:41;0.40;;;0.40;;
19223;SDS011;9746;47.180;9.776;2022-12-08T19:14:09;0.40;;;0.40;;
19223;SDS011;9746;47.180;9.776;2022-12-08T19:16:38;0.33;;;0.33;;
19223;SDS011;9746;47.180;9.776;2022-12-08T19:19:07;0.40;;;0.40;;
19223;SDS011;9746;47.180;9.776;2022-12-08T19:21:34;0.40;;;0.40;;
19223;SDS011;9746;47.180;9.776;2022-12-08T19:24:17;0.30;;;0.30;;
19223;SDS011;9746;47.180;9.776;2022-12-08T19:26:45;0.30;;;0.30;;
19223;SDS011;9746;47.180;9.776;2022-12-08T19:31:46;0.33;;;0.33;;
19223;SDS011;9746;47.180;9.776;2022-12-08T19:34:17;0.30;;;0.30;;
19223;SDS011;9746;47.180;9.776;2022-12-08T19:36:45;0.30;;;0.30;;
19223;SDS011;9746;47.180;9.776;2022-12-08T19:39:14;0.40;;;0.40;;
19223;SDS011;9746;47.180;9.776;2022-12-08T19:42:00;0.30;;;0.30;;
19223;SDS011;9746;47.180;9.776;2022-12-08T19:47:42;0.30;;;0.30;;
19223;SDS011;9746;47.180;9.776;2022-12-08T19:50:20;0.40;;;0.40;;
19223;SDS011;9746;47.180;9.776;2022-12-08T19:53:04;0.40;;;0.40;;
19223;SDS011;9746;47.180;9.776;2022-12-08T19:55:38;0.47;;;0.47;;
19223;SDS011;9746;47.180;9.776;2022-12-08T19:58:08;0.40;;;0.40;;
19223;SDS011;9746;47.180;9.776;2022-12-08T20:03:35;0.40;;;0.40;;
19223;SDS011;9746;47.180;9.776;2022-12-08T20:06:04;0.30;;;0.30;;
19223;SDS011;9746;47.180;9.776;2022-12-08T20:08:32;0.40;;;0.40;;
19223;SDS011;9746;47.180;9.776;2022-12-08T20:11:12;0.30;;;0.30;;
19223;SDS011;9746;47.180;9.776;2022-12-08T20:13:40;0.30;;;0.30;;
19223;SDS011;9746;47.180;9.776;2022-12-08T20:16:18;0.43;;;0.43;;
19223;SDS011;9746;47.180;9.776;2022-12-08T20:18:49;0.40;;;0.40;;
19223;SDS011;9746;47.180;9.776;2022-12-08T20:21:17;0.40;;;0.40;;
19223;SDS011;9746;47.180;9.776;2022-12-08T20:23:46;0.40;;;0.40;;
19223;SDS011;9746;47.180;9.776;2022-12-08T20:26:16;0.50;;;0.50;;
19223;SDS011;9746;47.180;9.776;2022-12-08T20:28:46;0.60;;;0.60;;
19223;SDS011;9746;47.180;9.776;2022-12-08T20:31:19;0.30;;;0.30;;
